Time;durP1;ratioP1;P1;durP2;ratioP2;P2;SDS_P1;SDS_P2;PMS_P1;PMS_P2;Temp;Humidity;BMP_temperature;BMP_pressure;BME280_temperature;BME280_humidity;BME280_pressure;Samples;Min_cycle;Max_cycle;Signal;HPM_P1;HPM_P2
2022/01/01 00:02:23;;;;;;;36.47;17.23;;;10.70;99.90;;;;;;4962975;28;20148;-92
2022/01/01 00:04:49;;;;;;;39.65;17.40;;;10.30;99.90;;;;;;4966000;28;20038;-94
2022/01/01 00:07:16;;;;;;;38.35;17.45;;;10.30;99.90;;;;;;4979312;28;20046;-92
2022/01/01 00:09:43;;;;;;;37.00;17.55;;;10.30;99.90;;;;;;4962662;28;20037;-92
2022/01/01 00:12:10;;;;;;;39.35;17.85;;;10.30;99.90;;;;;;4977812;28;20034;-93
2022/01/01 00:14:36;;;;;;;41.53;16.85;;;10.30;99.90;;;;;;4981298;28;20042;-93
2022/01/01 00:17:03;;;;;;;39.20;17.75;;;11.30;99.90;;;;;;4978911;28;20136;-92
2022/01/01 00:19:31;;;;;;;43.45;18.60;;;10.30;99.90;;;;;;4963847;28;20166;-91
2022/01/01 00:22:00;;;;;;;37.78;17.35;;;10.90;99.90;;;;;;4963139;28;20086;-95
2022/01/01 00:24:26;;;;;;;42.50;18.02;;;10.30;99.90;;;;;;4998168;28;20095;-91
2022/01/01 00:26:52;;;;;;;37.83;18.02;;;10.50;99.90;;;;;;4980830;28;20446;-93
2022/01/01 00:29:19;;;;;;;38.78;17.58;;;10.30;99.90;;;;;;4950212;28;20050;-94
2022/01/01 00:31:45;;;;;;;37.72;17.80;;;10.30;99.90;;;;;;4973564;28;20053;-92
2022/01/01 00:34:11;;;;;;;40.20;17.05;;;11.30;99.90;;;;;;4966505;28;20046;-92
2022/01/01 00:36:37;;;;;;;40.20;15.85;;;10.30;99.90;;;;;;4982806;28;20038;-92
2022/01/01 00:39:03;;;;;;;39.53;17.42;;;10.30;99.90;;;;;;4977617;28;20129;-93
2022/01/01 00:41:29;;;;;;;41.80;18.08;;;10.30;99.90;;;;;;4979813;28;20042;-92
2022/01/01 00:43:55;;;;;;;44.28;20.95;;;10.30;99.90;;;;;;4969759;28;20038;-93
2022/01/01 00:46:20;;;;;;;46.15;20.58;;;10.20;99.90;;;;;;4969791;28;20427;-92
2022/01/01 00:48:46;;;;;;;47.10;22.15;;;10.40;99.90;;;;;;4964343;28;20045;-94
2022/01/01 00:51:12;;;;;;;45.55;22.05;;;10.20;99.90;;;;;;4966642;28;20044;-93
2022/01/01 00:53:37;;;;;;;48.78;22.60;;;10.20;99.90;;;;;;4978036;28;20033;-93
2022/01/01 00:56:03;;;;;;;44.28;22.77;;;11.30;99.90;;;;;;4967732;28;20171;-93
2022/01/01 00:58:29;;;;;;;49.78;23.33;;;10.10;99.90;;;;;;4962502;28;20042;-92
2022/01/01 01:00:55;;;;;;;51.83;23.50;;;10.20;99.90;;;;;;4980222;28;20037;-94
2022/01/01 01:03:20;;;;;;;50.78;23.52;;;10.20;99.90;;;;;;4969304;28;20065;-93
2022/01/01 01:05:47;;;;;;;48.80;22.23;;;9.90;99.90;;;;;;4952057;28;20410;-94
2022/01/01 01:08:15;;;;;;;45.45;22.05;;;10.20;99.90;;;;;;4966450;28;20041;-91
2022/01/01 01:10:44;;;;;;;48.10;21.98;;;10.20;99.90;;;;;;4979378;28;20465;-92
2022/01/01 01:13:10;;;;;;;51.33;21.55;;;10.20;99.90;;;;;;4979227;28;20044;-93
2022/01/01 01:15:36;;;;;;;49.22;21.52;;;10.20;99.90;;;;;;4987078;28;20042;-93
2022/01/01 01:18:04;;;;;;;44.42;20.05;;;10.10;99.90;;;;;;4963218;28;20052;-93
2022/01/01 01:20:31;;;;;;;43.70;19.50;;;10.10;99.90;;;;;;4963004;28;20037;-92
2022/01/01 01:22:57;;;;;;;42.33;18.33;;;10.10;99.90;;;;;;4994256;28;20099;-92
2022/01/01 01:25:25;;;;;;;41.75;17.95;;;10.00;99.90;;;;;;4985355;28;20052;-92
2022/01/01 01:27:51;;;;;;;46.10;18.38;;;10.00;99.90;;;;;;4978768;28;20491;-93
2022/01/01 01:30:18;;;;;;;46.78;17.65;;;9.90;99.90;;;;;;4981604;28;20038;-92
2022/01/01 01:32:46;;;;;;;37.10;15.63;;;9.90;99.90;;;;;;4982683;28;20068;-93
2022/01/01 01:35:13;;;;;;;45.70;17.65;;;9.90;99.90;;;;;;4997829;28;20136;-92
2022/01/01 01:37:39;;;;;;;44.40;16.67;;;9.80;99.90;;;;;;4997351;28;20037;-91
2022/01/01 01:40:06;;;;;;;40.08;15.95;;;9.80;99.90;;;;;;4998377;28;20068;-93
2022/01/01 01:42:33;;;;;;;40.38;16.25;;;9.80;99.90;;;;;;4981764;28;20033;-92
2022/01/01 01:45:01;;;;;;;42.63;16.05;;;9.80;99.90;;;;;;4992892;28;20038;-92
2022/01/01 01:47:33;;;;;;;39.88;17.35;;;9.70;99.90;;;;;;4997464;28;20037;-92
2022/01/01 01:50:01;;;;;;;45.42;17.75;;;9.70;99.90;;;;;;4997450;28;20048;-92
2022/01/01 01:52:34;;;;;;;44.80;17.02;;;9.70;99.90;;;;;;4981850;28;20048;-91
2022/01/01 01:55:00;;;;;;;;;;;10.20;99.90;;;;;;4976423;28;20045;-92
2022/01/01 01:57:27;;;;;;;40.47;15.05;;;9.70;99.90;;;;;;4997481;28;19924;-91
2022/01/01 01:59:53;;;;;;;45.47;16.63;;;9.70;99.90;;;;;;4978423;28;20060;-92
2022/01/01 02:02:19;;;;;;;42.05;16.48;;;9.80;99.90;;;;;;4974846;28;20487;-91
2022/01/01 02:04:45;;;;;;;44.22;16.80;;;10.30;99.90;;;;;;4978253;28;20041;-91
2022/01/01 02:07:12;;;;;;;48.92;18.10;;;9.80;99.90;;;;;;5013972;28;20080;-92
2022/01/01 02:09:39;;;;;;;46.85;17.42;;;9.80;99.90;;;;;;4979618;28;20030;-92
2022/01/01 02:12:08;;;;;;;44.55;17.88;;;9.80;99.90;;;;;;5018295;28;20049;-91
2022/01/01 02:15:10;;;;;;;51.13;18.40;;;9.80;99.90;;;;;;4983054;28;20088;-92
2022/01/01 02:17:36;;;;;;;45.90;19.50;;;;;;;;;;4998516;28;20049;-92
2022/01/01 02:20:21;;;;;;;53.58;20.33;;;9.80;99.90;;;;;;5002606;28;20069;-91
2022/01/01 02:22:48;;;;;;;51.60;21.02;;;9.80;99.90;;;;;;4971283;28;20145;-91
2022/01/01 02:25:19;;;;;;;51.78;23.10;;;9.80;99.90;;;;;;4985198;28;20042;-92
2022/01/01 02:27:46;;;;;;;59.15;24.52;;;9.80;99.90;;;;;;4982152;28;20077;-91
2022/01/01 02:30:15;;;;;;;59.85;25.00;;;9.90;99.90;;;;;;4979498;28;20091;-91
2022/01/01 02:32:41;;;;;;;66.75;26.70;;;9.80;99.90;;;;;;4973049;28;20109;-92
2022/01/01 02:35:12;;;;;;;67.78;27.08;;;10.30;99.90;;;;;;4979742;28;20037;-92
2022/01/01 02:37:39;;;;;;;75.28;30.13;;;9.90;99.90;;;;;;4981374;28;20041;-93
2022/01/01 02:40:06;;;;;;;71.90;29.98;;;9.80;99.90;;;;;;4981580;28;20088;-92
2022/01/01 02:42:32;;;;;;;64.07;29.85;;;9.90;99.90;;;;;;4965842;28;20045;-92
2022/01/01 02:44:59;;;;;;;72.80;31.65;;;10.70;99.90;;;;;;4981456;28;20042;-92
2022/01/01 02:47:25;;;;;;;72.70;32.20;;;9.90;99.90;;;;;;4962653;28;20078;-91
2022/01/01 02:49:51;;;;;;;68.82;31.33;;;9.90;99.90;;;;;;4961680;28;20054;-92
2022/01/01 02:52:17;;;;;;;72.43;30.38;;;10.00;99.90;;;;;;4979811;28;20038;-92
2022/01/01 02:54:43;;;;;;;67.45;28.98;;;10.00;99.90;;;;;;4965091;28;20537;-93
2022/01/01 02:57:09;;;;;;;62.50;28.42;;;10.00;99.90;;;;;;4962575;28;20034;-92
2022/01/01 02:59:35;;;;;;;67.75;28.08;;;10.00;99.90;;;;;;4989234;28;20041;-93
2022/01/01 03:02:01;;;;;;;73.68;27.60;;;10.80;99.90;;;;;;4976191;28;20483;-92
2022/01/01 03:04:26;;;;;;;68.05;25.80;;;10.00;99.90;;;;;;4973601;28;20213;-91
2022/01/01 03:06:54;;;;;;;64.95;26.50;;;10.00;99.90;;;;;;4962078;28;20116;-92
2022/01/01 03:09:23;;;;;;;63.65;24.67;;;10.00;99.90;;;;;;4955980;28;20085;-91
2022/01/01 03:11:49;;;;;;;60.30;24.52;;;10.10;99.90;;;;;;4964815;28;20048;-92
2022/01/01 03:14:17;;;;;;;63.00;25.67;;;10.00;99.90;;;;;;4964595;28;20046;-92
2022/01/01 03:16:46;;;;;;;71.18;26.73;;;10.00;99.90;;;;;;4966571;28;20042;-91
2022/01/01 03:19:13;;;;;;;62.67;27.20;;;10.20;99.90;;;;;;4987970;28;20129;-92
2022/01/01 03:21:39;;;;;;;70.45;28.25;;;10.00;99.90;;;;;;4988528;28;20045;-91
2022/01/01 03:24:05;;;;;;;69.60;30.38;;;10.00;99.90;;;;;;4983909;28;20042;-92
2022/01/01 03:26:31;;;;;;;72.45;30.85;;;10.00;99.90;;;;;;4967770;28;20125;-91
2022/01/01 03:28:56;;;;;;;65.78;30.58;;;10.10;99.90;;;;;;4984450;28;20565;-91
2022/01/01 03:31:24;;;;;;;65.40;29.60;;;10.10;99.90;;;;;;4986001;28;20064;-92
2022/01/01 03:33:50;;;;;;;69.45;30.83;;;10.00;99.90;;;;;;4983705;28;20417;-91
2022/01/01 03:36:16;;;;;;;71.97;31.17;;;10.20;99.90;;;;;;4983565;28;21461;-92
2022/01/01 03:38:42;;;;;;;78.00;33.13;;;10.10;99.90;;;;;;4963766;28;20045;-92
2022/01/01 03:41:08;;;;;;;67.95;31.27;;;10.10;99.90;;;;;;4967544;28;20104;-92
2022/01/01 03:43:33;;;;;;;60.78;29.73;;;10.10;99.90;;;;;;4998697;28;20037;-93
2022/01/01 03:45:59;;;;;;;67.40;29.90;;;10.10;99.90;;;;;;4968097;28;20522;-92
2022/01/01 03:48:25;;;;;;;67.57;30.00;;;10.10;99.90;;;;;;4980072;28;20038;-92
2022/01/01 03:50:51;;;;;;;65.85;29.60;;;10.10;99.90;;;;;;4991101;28;20049;-92
2022/01/01 03:53:17;;;;;;;68.35;29.77;;;10.10;99.90;;;;;;4987169;28;20083;-93
2022/01/01 03:55:43;;;;;;;62.25;27.77;;;10.40;99.90;;;;;;4983546;28;20037;-92
2022/01/01 03:58:09;;;;;;;71.55;30.05;;;10.10;99.90;;;;;;4999823;28;20048;-92
2022/01/01 04:00:39;;;;;;;72.40;28.98;;;10.20;99.90;;;;;;4999762;28;20445;-93
2022/01/01 04:03:10;;;;;;;68.25;28.67;;;10.20;99.90;;;;;;4995914;28;20068;-92
2022/01/01 04:05:37;;;;;;;62.30;26.13;;;10.40;99.90;;;;;;5000582;28;20068;-92
2022/01/01 04:08:04;;;;;;;64.22;27.35;;;11.60;99.90;;;;;;4997338;28;20042;-91
2022/01/01 04:10:31;;;;;;;63.08;27.85;;;;;;;;;;4989551;28;20048;-91
2022/01/01 04:13:01;;;;;;;61.72;26.63;;;10.10;99.90;;;;;;4986426;28;20338;-92
2022/01/01 04:15:28;;;;;;;61.10;26.58;;;10.10;99.90;;;;;;4994069;28;20046;-92
2022/01/01 04:18:00;;;;;;;59.15;24.65;;;10.10;99.90;;;;;;5015166;28;20041;-91
2022/01/01 04:20:26;;;;;;;55.08;25.13;;;10.00;99.90;;;;;;5003944;28;20038;-92
2022/01/01 04:22:53;;;;;;;60.80;24.77;;;10.80;99.90;;;;;;4971483;28;20052;-92
2022/01/01 04:25:20;;;;;;;60.40;25.75;;;10.00;99.90;;;;;;4959129;28;20046;-92
2022/01/01 04:27:47;;;;;;;57.97;24.92;;;10.20;99.90;;;;;;4974778;28;20037;-92
2022/01/01 04:30:13;;;;;;;63.55;26.10;;;10.00;99.90;;;;;;4958719;28;20100;-92
2022/01/01 04:32:39;;;;;;;57.03;24.95;;;10.10;99.90;;;;;;4993833;28;20041;-91
2022/01/01 04:35:05;;;;;;;64.95;26.88;;;10.20;99.90;;;;;;4979220;28;20514;-91
2022/01/01 04:37:31;;;;;;;60.95;26.08;;;9.90;99.90;;;;;;4960551;28;20038;-92
2022/01/01 04:39:59;;;;;;;58.38;26.58;;;10.20;99.90;;;;;;4960678;28;20121;-92
2022/01/01 04:42:29;;;;;;;59.50;27.05;;;10.00;99.90;;;;;;4960699;28;20078;-91
2022/01/01 04:44:55;;;;;;;63.22;28.80;;;10.00;99.90;;;;;;4991445;28;20542;-92
2022/01/01 04:47:21;;;;;;;58.25;27.77;;;10.00;99.90;;;;;;4959838;28;20126;-92
2022/01/01 04:49:47;;;;;;;67.88;30.25;;;10.00;99.90;;;;;;4968576;28;20049;-92
2022/01/01 04:52:12;;;;;;;64.38;29.23;;;10.00;99.90;;;;;;4960367;28;20384;-92
2022/01/01 04:54:41;;;;;;;61.67;28.90;;;10.00;99.90;;;;;;4967437;28;20049;-92
2022/01/01 04:57:08;;;;;;;68.00;29.75;;;10.00;99.90;;;;;;4975624;28;20068;-92
2022/01/01 04:59:38;;;;;;;71.53;31.13;;;10.80;99.90;;;;;;4974459;28;20046;-92
2022/01/01 05:02:04;;;;;;;65.43;30.77;;;9.90;99.90;;;;;;4947176;28;20093;-91
2022/01/01 05:04:30;;;;;;;64.68;31.73;;;11.00;99.90;;;;;;4973647;28;20230;-92
2022/01/01 05:06:56;;;;;;;69.15;33.20;;;9.90;99.90;;;;;;4970638;28;20073;-91
2022/01/01 05:09:22;;;;;;;76.55;33.75;;;9.90;99.90;;;;;;4963338;28;20042;-90
2022/01/01 05:11:48;;;;;;;74.68;36.22;;;10.70;99.90;;;;;;4963239;28;20557;-92
2022/01/01 05:14:15;;;;;;;80.25;37.90;;;9.90;99.90;;;;;;4964026;28;20038;-92
2022/01/01 05:16:41;;;;;;;82.80;38.33;;;10.00;99.90;;;;;;4962665;28;20038;-91
2022/01/01 05:19:07;;;;;;;77.70;37.03;;;10.00;99.90;;;;;;4962260;28;20472;-91
2022/01/01 05:21:35;;;;;;;79.00;38.95;;;10.00;99.90;;;;;;4978054;28;20156;-91
2022/01/01 05:24:05;;;;;;;78.68;38.03;;;10.00;99.90;;;;;;4962642;28;20049;-91
2022/01/01 05:26:34;;;;;;;74.15;37.45;;;10.00;99.90;;;;;;4980176;28;20069;-90
2022/01/01 05:29:00;;;;;;;76.13;39.10;;;10.00;99.90;;;;;;4962083;28;20033;-91
2022/01/01 05:31:27;;;;;;;74.30;39.88;;;10.00;99.90;;;;;;4966313;28;20133;-92
2022/01/01 05:33:55;;;;;;;79.93;41.15;;;10.00;99.90;;;;;;4964375;28;20177;-91
2022/01/01 05:36:20;;;;;;;85.43;41.08;;;10.00;99.90;;;;;;4987672;28;20270;-92
2022/01/01 05:38:47;;;;;;;85.35;42.65;;;10.00;99.90;;;;;;4961920;28;20065;-92
2022/01/01 05:41:13;;;;;;;83.32;42.20;;;10.00;99.90;;;;;;4961305;28;20030;-91
2022/01/01 05:43:39;;;;;;;81.85;43.38;;;10.60;99.90;;;;;;4976067;28;20038;-92
2022/01/01 05:46:05;;;;;;;80.88;43.92;;;10.00;99.90;;;;;;4970770;28;20107;-92
2022/01/01 05:48:32;;;;;;;82.90;43.05;;;10.00;99.90;;;;;;4995053;28;20442;-92
2022/01/01 05:50:58;;;;;;;90.10;43.88;;;10.10;99.90;;;;;;4973892;28;20064;-91
2022/01/01 05:53:24;;;;;;;82.95;44.25;;;10.30;99.90;;;;;;4977778;28;20038;-91
2022/01/01 05:55:50;;;;;;;91.25;44.60;;;10.10;99.90;;;;;;4973998;28;20207;-92
2022/01/01 05:58:16;;;;;;;82.85;42.05;;;10.10;99.90;;;;;;4962137;28;20042;-93
2022/01/01 06:00:42;;;;;;;74.97;39.88;;;10.20;99.90;;;;;;4972070;28;20099;-92
2022/01/01 06:03:08;;;;;;;74.38;38.60;;;10.90;99.90;;;;;;4961818;28;20534;-92
2022/01/01 06:05:34;;;;;;;74.45;37.25;;;10.20;99.90;;;;;;4958561;28;20039;-91
2022/01/01 06:08:01;;;;;;;76.63;37.33;;;10.20;99.90;;;;;;4978618;28;20193;-92
2022/01/01 06:10:27;;;;;;;73.75;36.03;;;10.20;99.90;;;;;;4963996;28;20241;-93
2022/01/01 06:12:53;;;;;;;67.15;32.28;;;10.20;99.90;;;;;;4960799;28;20433;-92
2022/01/01 06:15:22;;;;;;;63.65;31.95;;;10.20;99.90;;;;;;4991423;28;20140;-93
2022/01/01 06:17:49;;;;;;;66.28;32.05;;;10.10;99.90;;;;;;4978164;28;20042;-92
2022/01/01 06:20:15;;;;;;;70.28;31.65;;;10.10;99.90;;;;;;4979828;28;20038;-92
2022/01/01 06:22:42;;;;;;;64.80;30.30;;;10.10;99.90;;;;;;4976732;28;20053;-93
2022/01/01 06:25:09;;;;;;;64.85;29.73;;;10.20;99.90;;;;;;4964516;28;20042;-93
2022/01/01 06:27:35;;;;;;;59.45;27.83;;;10.30;99.90;;;;;;4977677;28;20129;-92
2022/01/01 06:30:01;;;;;;;61.30;28.45;;;10.10;99.90;;;;;;4977685;28;20052;-93
2022/01/01 06:32:30;;;;;;;62.20;27.00;;;10.10;99.90;;;;;;4974670;28;20479;-92
2022/01/01 06:34:56;;;;;;;68.55;28.45;;;10.20;99.90;;;;;;4976518;28;20046;-94
2022/01/01 06:37:22;;;;;;;62.63;27.30;;;10.30;99.90;;;;;;4980947;28;20057;-92
2022/01/01 06:39:47;;;;;;;65.97;26.45;;;11.70;99.90;;;;;;4967789;28;20081;-93
2022/01/01 06:42:13;;;;;;;64.28;25.23;;;10.10;99.90;;;;;;4963468;28;20042;-92
2022/01/01 06:44:39;;;;;;;63.08;24.35;;;10.10;99.90;;;;;;4959445;28;20073;-93
2022/01/01 06:47:05;;;;;;;63.08;24.52;;;10.10;99.90;;;;;;4962357;28;20038;-92
2022/01/01 06:49:30;;;;;;;62.22;23.83;;;10.10;99.90;;;;;;4961550;28;20065;-93
2022/01/01 06:51:56;;;;;;;58.83;21.98;;;10.20;99.90;;;;;;4966313;28;20093;-92
2022/01/01 06:54:22;;;;;;;53.60;20.85;;;10.10;99.90;;;;;;4957382;28;20140;-93
2022/01/01 06:56:47;;;;;;;55.72;22.63;;;10.10;99.90;;;;;;4946997;28;20042;-92
2022/01/01 06:59:13;;;;;;;56.17;20.38;;;10.10;99.90;;;;;;4957538;28;20483;-93
2022/01/01 07:01:39;;;;;;;52.28;20.73;;;10.30;99.90;;;;;;4962693;28;20056;-92
2022/01/01 07:04:05;;;;;;;57.25;20.90;;;10.10;99.90;;;;;;4984198;28;20044;-92
2022/01/01 07:06:31;;;;;;;51.67;20.10;;;10.20;99.90;;;;;;4965609;28;20037;-92
2022/01/01 07:08:57;;;;;;;46.22;18.88;;;10.10;99.90;;;;;;4976408;28;20037;-93
2022/01/01 07:11:23;;;;;;;45.72;18.55;;;10.10;99.90;;;;;;4963242;28;20523;-93
2022/01/01 07:13:49;;;;;;;52.80;19.70;;;;;;;;;;4966732;28;20212;-93
2022/01/01 07:16:14;;;;;;;53.45;20.27;;;10.10;99.90;;;;;;4974304;28;20134;-91
2022/01/01 07:18:40;;;;;;;52.00;18.63;;;10.10;99.90;;;;;;4978839;28;20323;-92
2022/01/01 07:21:07;;;;;;;45.22;18.95;;;11.30;99.90;;;;;;4971548;28;20116;-93
2022/01/01 07:23:32;;;;;;;49.03;17.63;;;10.30;99.90;;;;;;4980459;28;20042;-93
2022/01/01 07:25:58;;;;;;;49.15;18.38;;;10.10;99.90;;;;;;4962290;28;20547;-92
2022/01/01 07:28:24;;;;;;;55.63;19.00;;;10.20;99.90;;;;;;4952554;28;20077;-93
2022/01/01 07:30:50;;;;;;;53.78;20.33;;;10.20;99.90;;;;;;4965044;28;20040;-93
2022/01/01 07:33:16;;;;;;;50.40;20.05;;;10.20;99.90;;;;;;4961968;28;20046;-93
2022/01/01 07:35:42;;;;;;;58.80;21.60;;;10.50;99.90;;;;;;4951822;28;20102;-92
2022/01/01 07:38:08;;;;;;;61.40;23.90;;;10.10;99.90;;;;;;4965011;28;20438;-93
2022/01/01 07:40:34;;;;;;;60.97;23.80;;;10.20;99.90;;;;;;4963043;28;20503;-93
2022/01/01 07:43:22;;;;;;;62.67;23.58;;;10.20;99.90;;;;;;4960946;28;20042;-92
2022/01/01 07:45:48;;;;;;;66.28;23.83;;;10.80;99.90;;;;;;4979723;28;20475;-92
2022/01/01 07:48:14;;;;;;;65.68;22.65;;;10.20;99.90;;;;;;4976642;28;20045;-93
2022/01/01 07:50:40;;;;;;;55.65;21.50;;;10.30;99.90;;;;;;4986682;28;20045;-93
2022/01/01 07:53:07;;;;;;;53.17;22.08;;;10.30;99.90;;;;;;4963133;28;20053;-93
2022/01/01 07:55:33;;;;;;;57.35;21.10;;;10.30;99.90;;;;;;4965215;28;20056;-92
2022/01/01 07:57:59;;;;;;;53.13;21.88;;;10.30;99.90;;;;;;4964494;28;20034;-93
2022/01/01 08:00:25;;;;;;;57.50;21.70;;;10.40;99.90;;;;;;4964895;28;20462;-93
2022/01/01 08:02:50;;;;;;;49.08;20.48;;;10.30;99.90;;;;;;4957333;28;20042;-92
2022/01/01 08:05:16;;;;;;;49.63;20.40;;;10.70;99.90;;;;;;4964558;28;20042;-93
2022/01/01 08:07:43;;;;;;;51.45;19.80;;;10.40;99.90;;;;;;4978881;28;20493;-93
2022/01/01 08:10:10;;;;;;;49.72;19.25;;;10.40;99.90;;;;;;4983070;28;20038;-93
2022/01/01 08:12:36;;;;;;;57.53;20.02;;;10.30;99.90;;;;;;4993536;28;20050;-94
2022/01/01 08:15:04;;;;;;;58.05;21.17;;;10.40;99.90;;;;;;4964138;28;20061;-92
2022/01/01 08:17:30;;;;;;;55.95;20.98;;;;;;;;;;4968056;28;20071;-92
2022/01/01 08:19:57;;;;;;;49.53;20.13;;;10.50;99.90;;;;;;4980491;28;20042;-92
2022/01/01 08:22:23;;;;;;;50.95;20.88;;;10.50;99.90;;;;;;4961198;28;20054;-92
2022/01/01 08:24:49;;;;;;;55.42;22.05;;;10.80;99.90;;;;;;4960499;28;20049;-93
2022/01/01 08:27:15;;;;;;;50.08;20.98;;;10.60;99.90;;;;;;4964099;28;20038;-93
2022/01/01 08:29:41;;;;;;;49.03;21.60;;;11.00;99.90;;;;;;4960795;28;20109;-94
2022/01/01 08:32:10;;;;;;;60.92;22.27;;;10.60;99.90;;;;;;4960556;28;20054;-92
2022/01/01 08:34:38;;;;;;;50.88;20.42;;;10.60;99.90;;;;;;4978887;28;20038;-93
2022/01/01 08:37:05;;;;;;;52.60;20.75;;;10.60;99.90;;;;;;4969300;28;20213;-93
2022/01/01 08:39:31;;;;;;;54.05;20.98;;;10.60;99.90;;;;;;4979824;28;20042;-93
2022/01/01 08:41:57;;;;;;;53.38;21.48;;;10.70;99.90;;;;;;4952252;28;20049;-93
2022/01/01 08:44:22;;;;;;;53.33;20.58;;;10.70;99.90;;;;;;4963689;28;20034;-93
2022/01/01 08:46:49;;;;;;;51.30;21.23;;;;;;;;;;4947097;28;20053;-93
2022/01/01 08:49:15;;;;;;;55.28;22.38;;;10.70;99.90;;;;;;4957802;28;20081;-93
2022/01/01 08:51:42;;;;;;;52.30;21.80;;;10.80;99.90;;;;;;4978749;28;20042;-93
2022/01/01 08:54:08;;;;;;;58.38;22.35;;;10.80;99.90;;;;;;4961931;28;20042;-93
2022/01/01 08:56:34;;;;;;;50.60;23.42;;;10.80;99.90;;;;;;4975611;28;20132;-93
2022/01/01 08:59:00;;;;;;;52.58;21.85;;;10.80;99.90;;;;;;4962514;28;20483;-92
2022/01/01 09:01:26;;;;;;;52.97;22.75;;;11.20;99.90;;;;;;4964791;28;20128;-92
2022/01/01 09:03:52;;;;;;;53.55;22.88;;;10.90;99.90;;;;;;4967050;28;20049;-92
2022/01/01 09:06:18;;;;;;;62.60;24.05;;;10.90;99.90;;;;;;4978593;28;20038;-93
2022/01/01 09:08:44;;;;;;;54.20;23.17;;;10.90;99.90;;;;;;4964661;28;20041;-93
2022/01/01 09:11:11;;;;;;;55.45;23.35;;;10.90;99.90;;;;;;4961824;28;20037;-93
2022/01/01 09:13:43;;;;;;;53.80;22.98;;;10.90;99.90;;;;;;4962672;28;20049;-93
2022/01/01 09:16:14;;;;;;;50.25;23.63;;;11.00;99.90;;;;;;4963333;28;20487;-93
2022/01/01 09:18:42;;;;;;;55.63;23.85;;;11.00;99.90;;;;;;4981760;28;20487;-93
2022/01/01 09:21:08;;;;;;;52.20;24.10;;;11.00;99.90;;;;;;4961806;28;20062;-92
2022/01/01 09:23:35;;;;;;;58.80;25.15;;;11.00;99.90;;;;;;4971740;28;20087;-92
2022/01/01 09:26:01;;;;;;;56.28;24.55;;;11.10;99.90;;;;;;4977227;28;20071;-96
2022/01/01 09:28:34;;;;;;;56.53;23.92;;;11.10;99.90;;;;;;4976809;28;20029;-96
2022/01/01 09:31:00;;;;;;;;;;;11.10;99.90;;;;;;4966118;28;20034;-96
2022/01/01 09:33:29;;;;;;;54.15;24.05;;;11.20;99.90;;;;;;4977541;28;19925;-95
2022/01/01 09:36:04;;;;;;;50.00;23.52;;;11.20;99.90;;;;;;4960852;28;20038;-96
2022/01/01 09:38:31;;;;;;;47.08;23.27;;;11.30;99.90;;;;;;4964791;28;20395;-94
2022/01/01 09:40:57;;;;;;;47.08;23.17;;;11.40;99.90;;;;;;4968327;28;20069;-95
2022/01/01 09:43:25;;;;;;;51.15;24.23;;;11.40;99.90;;;;;;4978539;28;20049;-95
2022/01/01 09:45:53;;;;;;;51.15;24.60;;;11.70;99.90;;;;;;4977872;28;20073;-95
2022/01/01 09:48:21;;;;;;;43.15;23.52;;;11.40;99.90;;;;;;4958857;28;20057;-94
2022/01/01 09:50:54;;;;;;;47.63;23.90;;;12.00;99.90;;;;;;4994077;28;20069;-95
2022/01/01 09:53:25;;;;;;;43.80;23.08;;;11.50;99.90;;;;;;4977697;28;20107;-94
2022/01/01 09:55:51;;;;;;;46.25;23.38;;;11.50;99.90;;;;;;4975846;28;20137;-94
2022/01/01 09:58:22;;;;;;;45.90;22.05;;;11.50;99.90;;;;;;4961349;28;20042;-94
2022/01/01 10:00:49;;;;;;;45.80;22.70;;;11.50;99.90;;;;;;4977369;28;20119;-94
2022/01/01 10:03:15;;;;;;;40.92;21.55;;;11.50;99.90;;;;;;4961625;28;20050;-94
2022/01/01 10:06:14;;;;;;;40.42;22.75;;;11.50;99.90;;;;;;4958074;28;20034;-95
2022/01/01 10:08:46;;;;;;;42.97;21.25;;;11.80;99.90;;;;;;4971704;28;20050;-94
2022/01/01 10:11:16;;;;;;;40.55;20.40;;;11.70;99.90;;;;;;4962550;28;20580;-94
2022/01/01 10:13:42;;;;;;;39.13;20.65;;;10.40;99.90;;;;;;4976668;28;20038;-92
2022/01/01 10:16:10;;;;;;;38.28;20.25;;;12.80;99.90;;;;;;4961775;28;20038;-92
2022/01/01 10:18:42;;;;;;;36.13;19.85;;;11.70;99.90;;;;;;4970827;28;20419;-92
2022/01/01 10:21:14;;;;;;;34.63;18.63;;;11.70;99.90;;;;;;4973151;28;20077;-93
2022/01/01 10:23:42;;;;;;;32.17;17.95;;;11.70;99.90;;;;;;4976558;28;20042;-93
2022/01/01 10:29:28;;;;;;;33.33;18.27;;;11.90;99.90;;;;;;4922040;29;20134;-92
2022/01/01 10:32:10;;;;;;;34.55;18.13;;;11.80;99.90;;;;;;4935176;29;20560;-92
2022/01/01 10:34:45;;;;;;;34.17;18.10;;;11.80;99.90;;;;;;4951864;28;20551;-93
2022/01/01 10:37:14;;;;;;;33.22;16.35;;;11.80;99.90;;;;;;4994259;28;20038;-93
2022/01/01 10:39:51;;;;;;;35.03;16.40;;;11.80;99.90;;;;;;4975499;28;20129;-92
2022/01/01 10:42:17;;;;;;;30.52;16.13;;;11.80;99.90;;;;;;4952172;28;20567;-94
2022/01/01 10:44:49;;;;;;;33.28;16.38;;;11.80;99.90;;;;;;4965842;28;20129;-93
2022/01/01 10:47:26;;;;;;;29.08;16.38;;;11.80;99.90;;;;;;4998636;28;20050;-93
2022/01/01 10:50:14;;;;;;;32.45;16.98;;;11.80;99.90;;;;;;4979035;28;20049;-93
2022/01/01 10:52:42;;;;;;;29.08;15.63;;;11.80;99.90;;;;;;4995417;28;20080;-93
2022/01/01 10:55:09;;;;;;;32.05;16.67;;;12.50;99.90;;;;;;4962977;28;20039;-93
2022/01/01 10:57:39;;;;;;;33.40;16.70;;;11.80;99.90;;;;;;4965820;28;20045;-93
2022/01/01 11:00:20;;;;;;;35.38;16.85;;;11.80;99.90;;;;;;4978077;28;20117;-93
2022/01/01 11:02:51;;;;;;;30.73;15.57;;;11.80;99.90;;;;;;4973818;28;20042;-93
2022/01/01 11:05:26;;;;;;;32.53;16.23;;;11.80;99.90;;;;;;4981240;28;20069;-93
2022/01/01 11:07:52;;;;;;;30.73;15.88;;;11.80;99.90;;;;;;4981080;28;20046;-93
2022/01/01 11:10:20;;;;;;;28.92;15.07;;;11.80;99.90;;;;;;4964183;28;20112;-93
2022/01/01 11:12:46;;;;;;;31.83;14.75;;;11.80;99.90;;;;;;4966191;28;20043;-93
2022/01/01 11:15:13;;;;;;;28.35;15.30;;;11.90;99.90;;;;;;4996509;28;20045;-93
2022/01/01 11:17:39;;;;;;;29.00;14.98;;;11.90;99.90;;;;;;4956642;28;20042;-92
2022/01/01 11:20:08;;;;;;;34.85;14.95;;;12.00;99.90;;;;;;4996457;28;20049;-92
2022/01/01 11:22:34;;;;;;;27.05;14.13;;;11.90;99.90;;;;;;4993974;28;20152;-92
2022/01/01 11:25:01;;;;;;;26.67;13.90;;;11.80;99.90;;;;;;4999899;28;20041;-93
2022/01/01 11:27:27;;;;;;;24.73;14.43;;;11.90;99.90;;;;;;5000157;28;20052;-94
2022/01/01 11:29:54;;;;;;;25.75;13.40;;;11.90;99.90;;;;;;4983241;28;20038;-93
2022/01/01 11:32:38;;;;;;;27.52;13.40;;;11.90;99.90;;;;;;5000975;28;20048;-94
2022/01/01 11:35:32;;;;;;;27.95;13.10;;;11.90;99.90;;;;;;4996161;28;20037;-93
2022/01/01 11:38:09;;;;;;;25.85;12.50;;;11.90;99.90;;;;;;4977892;28;20060;-93
2022/01/01 11:41:11;;;;;;;26.20;12.80;;;11.90;99.90;;;;;;5000430;28;20486;-93
2022/01/01 11:43:39;;;;;;;26.42;12.60;;;12.00;99.90;;;;;;5016210;28;20041;-92
2022/01/01 11:46:17;;;;;;;22.92;12.00;;;12.00;99.90;;;;;;5000145;28;20037;-92
2022/01/01 11:48:44;;;;;;;26.40;12.02;;;12.00;99.90;;;;;;4999653;28;20038;-93
2022/01/01 11:51:54;;;;;;;26.38;12.02;;;12.00;99.90;;;;;;5015241;28;20067;-92
2022/01/01 11:54:40;;;;;;;20.67;10.75;;;12.00;99.90;;;;;;4996973;28;20414;-93
2022/01/01 11:57:07;;;;;;;21.10;10.02;;;12.10;99.90;;;;;;4967756;28;20482;-92
2022/01/01 12:00:08;;;;;;;25.63;10.15;;;12.00;99.90;;;;;;4999585;28;20098;-92
2022/01/01 12:02:35;;;;;;;22.02;10.23;;;12.00;99.90;;;;;;4994202;28;20049;-93
2022/01/01 12:05:07;;;;;;;19.23;9.75;;;12.00;99.90;;;;;;4977681;28;20045;-92
2022/01/01 12:07:45;;;;;;;21.08;8.63;;;12.00;99.90;;;;;;4994680;28;20387;-93
2022/01/01 12:10:13;;;;;;;20.73;8.85;;;12.00;99.90;;;;;;5015997;28;20033;-93
2022/01/01 12:12:49;;;;;;;20.55;9.10;;;12.00;99.90;;;;;;4999215;28;20124;-94
2022/01/01 12:15:28;;;;;;;20.25;8.27;;;12.10;99.90;;;;;;5015977;28;20056;-93
2022/01/01 12:18:04;;;;;;;18.52;8.23;;;12.10;99.90;;;;;;5012968;28;20053;-93
2022/01/01 12:20:35;;;;;;;22.75;7.85;;;12.00;99.90;;;;;;4999430;28;20311;-93
2022/01/01 12:23:04;;;;;;;18.85;7.15;;;12.10;99.90;;;;;;4997609;28;20057;-93
2022/01/01 12:25:31;;;;;;;21.92;6.63;;;12.10;99.90;;;;;;4979905;28;20458;-93
2022/01/01 12:28:00;;;;;;;17.27;6.88;;;12.10;99.90;;;;;;4996687;28;20072;-93
2022/01/01 12:30:41;;;;;;;15.50;6.05;;;12.10;99.90;;;;;;4979756;28;20508;-94
2022/01/01 12:33:10;;;;;;;16.35;6.07;;;12.10;99.90;;;;;;4997355;28;20034;-94
2022/01/01 12:35:44;;;;;;;16.35;6.22;;;12.00;99.90;;;;;;4277282;28;10000581;-93
2022/01/01 12:38:18;;;;;;;16.55;5.63;;;12.00;99.90;;;;;;4976233;28;20431;-93
2022/01/01 12:41:13;;;;;;;18.50;5.95;;;12.10;99.90;;;;;;5007370;28;20136;-93